createdAt,value
2017-06-11T00:02:07.222Z,93.20
2017-06-11T00:04:35.705Z,93.90
2017-06-11T00:07:04.204Z,94.40
2017-06-11T00:09:32.890Z,94.40
2017-06-11T00:12:01.500Z,94.50
2017-06-11T00:14:30.304Z,94.60
2017-06-11T00:16:59.550Z,94.30
2017-06-11T00:19:28.171Z,94.30
2017-06-11T00:21:56.909Z,94.60
2017-06-11T00:24:25.449Z,94.40
2017-06-11T00:26:53.947Z,93.70
2017-06-11T00:29:23.221Z,94.30
2017-06-11T00:31:51.728Z,94.30
2017-06-11T00:34:20.995Z,91.90
2017-06-11T00:36:49.656Z,91.70
2017-06-11T00:39:18.169Z,91.80
2017-06-11T00:41:46.826Z,91.80
2017-06-11T00:44:15.365Z,90.60
2017-06-11T00:46:43.869Z,91.00
2017-06-11T00:49:12.538Z,91.30
2017-06-11T00:51:42.393Z,89.80
2017-06-11T00:54:10.858Z,89.70
2017-06-11T00:56:39.321Z,90.70
2017-06-11T00:59:07.774Z,92.40
2017-06-11T01:01:36.278Z,92.80
2017-06-11T01:04:04.825Z,91.80
2017-06-11T01:06:33.483Z,92.10
2017-06-11T01:09:02.144Z,92.80
2017-06-11T01:11:30.682Z,93.10
2017-06-11T01:13:59.145Z,93.90
2017-06-11T01:16:27.618Z,93.70
2017-06-11T01:18:56.565Z,93.80
2017-06-11T01:21:25.263Z,93.30
2017-06-11T01:23:54.573Z,93.10
2017-06-11T01:26:24.290Z,92.00
2017-06-11T01:28:52.735Z,92.00
2017-06-11T01:31:21.417Z,91.80
2017-06-11T01:33:49.985Z,90.80
2017-06-11T01:36:18.517Z,90.20
2017-06-11T01:38:47.066Z,90.20
2017-06-11T01:41:16.153Z,90.40
2017-06-11T01:43:44.777Z,90.60
2017-06-11T01:46:13.305Z,89.70
2017-06-11T01:48:42.032Z,89.40
2017-06-11T01:51:10.521Z,89.10
2017-06-11T01:53:38.992Z,88.60
2017-06-11T01:56:07.443Z,88.20
2017-06-11T01:58:35.908Z,87.90
2017-06-11T02:01:04.389Z,86.50
2017-06-11T02:03:32.832Z,86.50
2017-06-11T02:06:02.637Z,84.80
2017-06-11T02:08:31.136Z,83.50
2017-06-11T02:10:59.687Z,83.50
2017-06-11T02:13:28.545Z,82.50
2017-06-11T02:15:57.029Z,82.30
2017-06-11T02:18:25.489Z,81.40
2017-06-11T02:20:54.724Z,80.20
2017-06-11T02:23:23.426Z,80.20
2017-06-11T02:25:51.987Z,79.90
2017-06-11T02:28:20.634Z,79.80
2017-06-11T02:30:50.342Z,79.20
2017-06-11T02:33:19.000Z,78.40
2017-06-11T02:35:47.478Z,79.10
2017-06-11T02:38:16.064Z,79.10
2017-06-11T02:40:44.527Z,78.00
2017-06-11T02:43:13.237Z,78.10
2017-06-11T02:45:41.992Z,78.20
2017-06-11T02:48:10.587Z,77.90
2017-06-11T02:50:39.229Z,78.40
2017-06-11T02:53:08.674Z,77.40
2017-06-11T02:55:37.773Z,76.90
2017-06-11T02:58:06.995Z,76.20
2017-06-11T03:00:35.554Z,76.10
2017-06-11T03:03:04.064Z,76.20
2017-06-11T03:05:32.538Z,76.10
2017-06-11T03:08:01.333Z,76.20
2017-06-11T03:10:30.017Z,75.80
2017-06-11T03:12:58.716Z,75.10
2017-06-11T03:15:27.363Z,75.20
2017-06-11T03:17:55.891Z,75.10
2017-06-11T03:20:24.690Z,75.40
2017-06-11T03:22:53.546Z,75.10
2017-06-11T03:25:22.133Z,75.30
2017-06-11T03:27:50.597Z,75.20
2017-06-11T03:30:19.209Z,74.50
2017-06-11T03:32:47.785Z,75.00
2017-06-11T03:35:16.251Z,74.90
2017-06-11T03:37:44.860Z,74.60
2017-06-11T03:40:13.347Z,75.00
2017-06-11T03:42:41.804Z,75.40
2017-06-11T03:45:10.629Z,75.40
2017-06-11T03:47:39.214Z,74.30
2017-06-11T03:50:07.674Z,73.70
2017-06-11T03:52:36.153Z,73.10
2017-06-11T03:55:04.846Z,73.20
2017-06-11T03:57:33.348Z,72.70
2017-06-11T04:00:01.852Z,73.10
2017-06-11T04:02:30.313Z,73.20
2017-06-11T04:04:59.117Z,72.90
2017-06-11T04:07:28.080Z,72.50
2017-06-11T04:09:56.552Z,72.20
2017-06-11T04:12:25.147Z,72.30
2017-06-11T04:14:53.709Z,72.80
2017-06-11T04:17:22.318Z,72.60
2017-06-11T04:19:50.885Z,72.40
2017-06-11T04:22:19.674Z,72.20
2017-06-11T04:24:48.316Z,71.00
2017-06-11T04:27:17.603Z,70.50
2017-06-11T04:29:46.337Z,70.50
2017-06-11T04:32:14.965Z,70.20
2017-06-11T04:34:43.614Z,70.00
2017-06-11T04:37:12.322Z,68.80
2017-06-11T04:39:40.847Z,68.60
2017-06-11T04:42:09.370Z,68.20
2017-06-11T04:44:37.950Z,67.40
2017-06-11T04:47:06.703Z,66.90
2017-06-11T04:49:35.333Z,66.40
2017-06-11T04:52:03.808Z,66.10
2017-06-11T04:54:32.945Z,66.00
2017-06-11T04:57:01.688Z,64.90
2017-06-11T04:59:30.148Z,62.40
2017-06-11T05:01:59.373Z,61.00
2017-06-11T05:04:27.914Z,60.80
2017-06-11T05:06:56.393Z,58.20
2017-06-11T05:09:24.929Z,56.70
2017-06-11T05:11:53.576Z,56.40
2017-06-11T05:14:22.897Z,54.30
2017-06-11T05:16:52.850Z,51.50
2017-06-11T05:19:21.899Z,51.30
2017-06-11T05:21:51.115Z,51.00
2017-06-11T05:24:19.783Z,50.90
2017-06-11T05:26:48.994Z,49.80
2017-06-11T05:29:17.493Z,49.80
2017-06-11T05:31:46.196Z,49.20
2017-06-11T05:34:14.904Z,47.40
2017-06-11T05:36:43.737Z,47.50
2017-06-11T05:39:12.256Z,48.20
2017-06-11T05:41:41.422Z,48.10
2017-06-11T05:44:10.644Z,50.50
2017-06-11T05:46:39.105Z,50.50
2017-06-11T05:49:07.933Z,52.50
2017-06-11T05:51:36.541Z,53.60
2017-06-11T05:54:05.257Z,54.50
2017-06-11T05:56:34.552Z,57.20
2017-06-11T05:59:03.535Z,57.10
2017-06-11T06:01:32.089Z,57.70
2017-06-11T06:04:00.565Z,57.90
2017-06-11T06:06:29.100Z,59.50
2017-06-11T06:08:58.374Z,58.00
2017-06-11T06:11:26.950Z,58.00
2017-06-11T06:13:56.395Z,57.40
2017-06-11T06:16:26.129Z,58.30
2017-06-11T06:18:54.823Z,58.20
2017-06-11T06:21:23.734Z,58.60
2017-06-11T06:23:52.209Z,58.10
2017-06-11T06:26:20.747Z,59.80
2017-06-11T06:28:49.247Z,58.70
2017-06-11T06:31:17.798Z,59.30
2017-06-11T06:33:46.449Z,57.70
2017-06-11T06:36:14.934Z,56.70
2017-06-11T06:38:43.452Z,57.30
2017-06-11T06:41:11.977Z,57.10
2017-06-11T06:43:40.458Z,55.50
2017-06-11T06:46:08.918Z,55.30
2017-06-11T06:48:38.137Z,55.80
2017-06-11T06:51:06.876Z,55.70
2017-06-11T06:53:35.534Z,53.80
2017-06-11T06:56:04.299Z,53.50
2017-06-11T06:58:33.128Z,53.70
2017-06-11T07:01:01.620Z,52.40
2017-06-11T07:03:31.749Z,51.30
2017-06-11T07:06:00.493Z,49.90
2017-06-11T07:08:29.102Z,50.00
2017-06-11T07:10:57.594Z,46.00
2017-06-11T07:13:26.693Z,44.60
2017-06-11T07:15:55.381Z,43.90
2017-06-11T07:18:24.457Z,43.20
2017-06-11T07:20:52.921Z,41.70
2017-06-11T07:23:21.647Z,40.70
2017-06-11T07:25:49.585Z,39.60
2017-06-11T07:28:17.548Z,39.30
2017-06-11T07:30:45.431Z,39.20
2017-06-11T07:33:13.321Z,40.00
2017-06-11T07:35:41.253Z,39.50
2017-06-11T07:38:09.131Z,40.10
2017-06-11T07:40:37.649Z,38.60
2017-06-11T07:43:06.540Z,38.10
2017-06-11T07:45:35.006Z,39.50
2017-06-11T07:48:02.860Z,39.70
2017-06-11T07:50:30.715Z,38.80
2017-06-11T07:52:58.926Z,37.10
2017-06-11T07:55:27.029Z,38.30
2017-06-11T07:57:55.780Z,37.20
2017-06-11T08:00:24.670Z,37.80
2017-06-11T08:02:52.521Z,38.40
2017-06-11T08:05:21.261Z,37.40
2017-06-11T08:07:49.888Z,38.30
2017-06-11T08:10:17.781Z,37.90
2017-06-11T08:12:45.614Z,37.80
2017-06-11T08:15:13.955Z,38.00
2017-06-11T08:17:41.968Z,37.90
2017-06-11T08:20:09.845Z,38.40
2017-06-11T08:22:37.814Z,37.50
2017-06-11T08:25:05.959Z,37.30
2017-06-11T08:27:36.693Z,38.20
2017-06-11T08:30:04.564Z,36.70
2017-06-11T08:32:32.401Z,38.20
2017-06-11T08:35:00.397Z,37.60
2017-06-11T08:37:28.446Z,37.30
2017-06-11T08:39:56.613Z,35.90
2017-06-11T08:42:25.208Z,36.50
2017-06-11T08:44:53.276Z,36.60
2017-06-11T08:47:21.346Z,37.20
2017-06-11T08:49:49.425Z,37.10
2017-06-11T08:52:17.304Z,39.20
2017-06-11T08:54:45.944Z,34.60
2017-06-11T08:57:13.945Z,34.60
2017-06-11T08:59:42.100Z,34.20
2017-06-11T09:02:10.161Z,34.80
2017-06-11T09:04:38.041Z,34.70
2017-06-11T09:07:05.906Z,34.40
2017-06-11T09:09:33.810Z,34.50
2017-06-11T09:12:02.695Z,35.00
2017-06-11T09:14:31.762Z,35.70
2017-06-11T09:16:59.841Z,35.60
2017-06-11T09:19:27.880Z,36.60
2017-06-11T09:21:55.759Z,35.70
2017-06-11T09:24:23.689Z,34.50
2017-06-11T09:26:51.549Z,34.30
2017-06-11T09:29:20.219Z,33.50
2017-06-11T09:31:48.124Z,33.50
2017-06-11T09:34:16.146Z,33.20
2017-06-11T09:36:44.296Z,34.90
2017-06-11T09:39:12.474Z,35.50
2017-06-11T09:41:40.321Z,36.10
2017-06-11T09:44:08.222Z,35.40
2017-06-11T09:46:36.069Z,33.80
2017-06-11T09:49:03.957Z,35.00
2017-06-11T09:51:32.047Z,34.70
2017-06-11T09:54:00.357Z,35.30
2017-06-11T09:56:28.244Z,34.60
2017-06-11T09:58:56.239Z,34.60
2017-06-11T10:01:24.405Z,34.50
2017-06-11T10:03:52.281Z,34.70
2017-06-11T10:06:20.278Z,35.50
2017-06-11T10:08:48.932Z,36.00
2017-06-11T10:11:17.233Z,36.00
2017-06-11T10:13:45.471Z,37.30
2017-06-11T10:16:13.353Z,36.40
2017-06-11T10:18:41.469Z,36.30
2017-06-11T10:21:09.387Z,36.20
2017-06-11T10:23:37.463Z,35.40
2017-06-11T10:26:05.593Z,36.30
2017-06-11T10:28:33.703Z,34.90
2017-06-11T10:31:01.895Z,36.60
2017-06-11T10:33:31.409Z,37.10
2017-06-11T10:35:59.301Z,37.30
2017-06-11T10:38:28.167Z,36.30
2017-06-11T10:40:56.231Z,36.20
2017-06-11T10:43:24.088Z,36.90
2017-06-11T10:45:52.196Z,39.30
2017-06-11T10:48:20.525Z,40.40
2017-06-11T10:50:48.419Z,39.40
2017-06-11T10:53:16.341Z,37.60
2017-06-11T10:55:44.221Z,36.80
2017-06-11T10:58:12.110Z,36.30
2017-06-11T11:00:40.430Z,37.20
2017-06-11T11:03:09.133Z,37.60
2017-06-11T11:05:37.764Z,36.80
2017-06-11T11:08:05.732Z,36.80
2017-06-11T11:10:33.714Z,36.10
2017-06-11T11:13:01.823Z,34.10
2017-06-11T11:15:32.134Z,33.90
2017-06-11T11:18:00.163Z,34.00
2017-06-11T11:20:28.026Z,34.50
2017-06-11T11:22:56.305Z,35.00
2017-06-11T11:25:24.606Z,33.70
2017-06-11T11:27:52.464Z,33.00
2017-06-11T11:30:20.337Z,34.10
2017-06-11T11:32:48.335Z,32.50
2017-06-11T11:35:16.222Z,32.30
2017-06-11T11:37:44.129Z,31.70
2017-06-11T11:40:12.072Z,34.00
2017-06-11T11:42:39.930Z,33.80
2017-06-11T11:45:08.184Z,33.80
2017-06-11T11:47:36.799Z,35.00
2017-06-11T11:50:04.671Z,34.70
2017-06-11T11:52:32.500Z,35.90
2017-06-11T11:55:00.381Z,36.00
2017-06-11T11:57:28.283Z,36.40
2017-06-11T11:59:56.411Z,36.40
2017-06-11T12:02:24.688Z,35.10
2017-06-11T12:04:53.080Z,35.50
2017-06-11T12:07:21.808Z,34.90
2017-06-11T12:09:49.909Z,35.90
2017-06-11T12:12:17.774Z,35.70
2017-06-11T12:14:45.831Z,34.50
2017-06-11T12:17:13.685Z,33.90
2017-06-11T12:19:41.874Z,33.50
2017-06-11T12:22:09.840Z,35.30
2017-06-11T12:24:37.712Z,35.10
2017-06-11T12:27:05.579Z,35.70
2017-06-11T12:29:33.889Z,35.00
2017-06-11T12:32:02.488Z,34.30
2017-06-11T12:34:30.411Z,36.50
2017-06-11T12:36:59.666Z,34.90
2017-06-11T12:39:28.353Z,35.10
2017-06-11T12:41:56.281Z,35.30
2017-06-11T12:44:24.225Z,37.20
2017-06-11T12:46:52.120Z,35.40
2017-06-11T12:49:20.470Z,35.20
2017-06-11T12:51:48.581Z,33.00
2017-06-11T12:54:16.421Z,31.20
2017-06-11T12:56:44.555Z,30.20
2017-06-11T12:59:12.597Z,32.00
2017-06-11T13:01:41.488Z,31.90
2017-06-11T13:04:10.110Z,32.60
2017-06-11T13:06:38.231Z,32.20
2017-06-11T13:09:06.077Z,32.40
2017-06-11T13:11:34.373Z,32.40
2017-06-11T13:14:03.536Z,33.30
2017-06-11T13:16:32.230Z,31.60
2017-06-11T13:19:00.796Z,32.20
2017-06-11T13:21:29.381Z,34.10
2017-06-11T13:23:58.009Z,34.60
2017-06-11T13:26:26.916Z,36.70
2017-06-11T13:28:55.397Z,36.20
2017-06-11T13:31:30.792Z,36.30
2017-06-11T13:33:59.277Z,36.00
2017-06-11T13:36:27.746Z,35.50
2017-06-11T13:38:56.227Z,36.40
2017-06-11T13:41:24.714Z,38.50
2017-06-11T13:43:53.234Z,38.90
2017-06-11T13:46:21.897Z,38.50
2017-06-11T13:48:50.838Z,37.10
2017-06-11T13:51:19.293Z,37.90
2017-06-11T13:53:47.833Z,39.20
2017-06-11T13:56:16.336Z,40.10
2017-06-11T13:58:44.805Z,38.00
2017-06-11T14:01:13.279Z,40.00
2017-06-11T14:03:42.138Z,38.70
2017-06-11T14:06:12.002Z,39.00
2017-06-11T14:08:40.546Z,38.30
2017-06-11T14:11:09.780Z,39.90
2017-06-11T14:13:40.381Z,39.90
2017-06-11T14:16:09.028Z,39.90
2017-06-11T14:18:37.563Z,39.80
2017-06-11T14:21:06.102Z,39.80
2017-06-11T14:23:39.133Z,38.90
2017-06-11T14:26:08.081Z,38.40
2017-06-11T14:28:37.009Z,37.70
2017-06-11T14:31:06.580Z,37.90
2017-06-11T14:33:35.237Z,37.90
2017-06-11T14:36:03.847Z,37.80
2017-06-11T14:38:32.394Z,37.70
2017-06-11T14:41:00.933Z,38.90
2017-06-11T14:43:29.747Z,38.80
2017-06-11T14:45:59.018Z,39.40
2017-06-11T14:48:27.520Z,39.30
2017-06-11T14:50:56.780Z,39.20
2017-06-11T14:53:25.477Z,39.20
2017-06-11T14:55:54.748Z,40.90
2017-06-11T14:58:23.292Z,41.10
2017-06-11T15:00:52.527Z,40.30
2017-06-11T15:03:20.504Z,40.20
2017-06-11T15:05:48.932Z,40.70
2017-06-11T15:08:16.799Z,41.20
2017-06-11T15:10:45.458Z,40.60
2017-06-11T15:13:13.740Z,40.50
2017-06-11T15:15:41.796Z,42.00
2017-06-11T15:18:09.672Z,42.70
2017-06-11T15:20:38.378Z,42.60
2017-06-11T15:23:07.868Z,41.60
2017-06-11T15:25:36.397Z,42.60
2017-06-11T15:28:05.824Z,45.00
2017-06-11T15:30:34.373Z,44.90
2017-06-11T15:33:04.254Z,44.00
2017-06-11T15:35:32.388Z,44.00
2017-06-11T15:38:00.307Z,46.20
2017-06-11T15:40:28.866Z,47.60
2017-06-11T15:42:57.822Z,50.30
2017-06-11T15:45:26.489Z,54.00
2017-06-11T15:47:56.222Z,56.20
2017-06-11T15:50:24.921Z,55.70
2017-06-11T15:52:53.357Z,59.80
2017-06-11T15:55:22.051Z,52.50
2017-06-11T15:57:50.250Z,52.00
2017-06-11T16:00:18.121Z,52.30
2017-06-11T16:02:46.280Z,56.00
2017-06-11T16:05:14.266Z,58.50
2017-06-11T16:07:42.230Z,53.60
2017-06-11T16:10:10.368Z,56.20
2017-06-11T16:12:39.205Z,59.40
2017-06-11T16:15:07.250Z,57.20
2017-06-11T16:17:35.134Z,58.60
2017-06-11T16:20:03.188Z,60.70
2017-06-11T16:22:31.200Z,61.90
2017-06-11T16:25:00.136Z,60.40
2017-06-11T16:27:28.802Z,58.80
2017-06-11T16:29:57.473Z,58.70
2017-06-11T16:32:26.321Z,54.90
2017-06-11T16:34:55.835Z,58.20
2017-06-11T16:37:24.550Z,54.50
2017-06-11T16:39:55.723Z,57.20
2017-06-11T16:42:25.112Z,56.80
2017-06-11T16:44:58.579Z,55.60
2017-06-11T16:47:27.090Z,55.30
2017-06-11T16:49:55.869Z,55.60
2017-06-11T16:52:24.401Z,57.00
2017-06-11T16:54:55.937Z,57.80
2017-06-11T16:57:24.548Z,59.70
2017-06-11T16:59:53.822Z,63.20
2017-06-11T17:02:23.238Z,63.20
2017-06-11T17:04:52.071Z,68.00
2017-06-11T17:07:21.120Z,66.00
2017-06-11T17:09:50.824Z,68.20
2017-06-11T17:12:19.639Z,69.00
2017-06-11T17:14:48.446Z,74.20
2017-06-11T17:17:16.310Z,74.80
2017-06-11T17:19:44.149Z,76.20
2017-06-11T17:22:12.650Z,78.10
2017-06-11T17:24:41.540Z,80.80
2017-06-11T17:27:09.618Z,80.70
2017-06-11T17:29:38.834Z,85.50
2017-06-11T17:32:07.338Z,85.50
2017-06-11T17:34:35.861Z,86.60
2017-06-11T17:37:04.605Z,86.50
2017-06-11T17:39:33.237Z,86.40
2017-06-11T17:42:01.799Z,88.90
2017-06-11T17:44:30.329Z,87.80
2017-06-11T17:46:59.528Z,89.60
2017-06-11T17:49:28.165Z,88.80
2017-06-11T17:51:56.720Z,89.30
2017-06-11T17:54:25.505Z,90.70
2017-06-11T17:56:54.025Z,89.30
2017-06-11T17:59:22.957Z,91.20
2017-06-11T18:01:52.535Z,90.30
2017-06-11T18:04:21.456Z,89.70
2017-06-11T18:06:50.147Z,92.70
2017-06-11T18:09:18.648Z,90.10
2017-06-11T18:11:48.173Z,91.60
2017-06-11T18:14:17.700Z,91.70
2017-06-11T18:16:46.576Z,91.70
2017-06-11T18:19:15.322Z,92.10
2017-06-11T18:21:44.667Z,92.80
2017-06-11T18:24:13.301Z,92.10
2017-06-11T18:26:42.577Z,90.90
2017-06-11T18:29:11.066Z,92.40
2017-06-11T18:31:39.753Z,92.00
2017-06-11T18:34:08.282Z,91.40
2017-06-11T18:36:37.564Z,90.70
2017-06-11T18:39:06.804Z,92.30
2017-06-11T18:41:35.756Z,92.00
2017-06-11T18:44:05.085Z,91.90
2017-06-11T18:46:33.982Z,91.10
2017-06-11T18:49:02.473Z,92.60
2017-06-11T18:51:31.257Z,92.20
2017-06-11T18:53:59.847Z,91.10
2017-06-11T18:56:28.522Z,91.80
2017-06-11T18:58:57.566Z,93.00
2017-06-11T19:01:26.180Z,93.30
2017-06-11T19:03:55.442Z,92.50
2017-06-11T19:06:24.835Z,92.40
2017-06-11T19:08:53.352Z,92.00
2017-06-11T19:11:21.866Z,93.10
2017-06-11T19:13:51.053Z,92.10
2017-06-11T19:16:20.259Z,94.80
2017-06-11T19:18:49.101Z,94.00
2017-06-11T19:21:17.931Z,93.70
2017-06-11T19:23:47.402Z,91.20
2017-06-11T19:26:16.491Z,91.80
2017-06-11T19:28:45.280Z,93.30
2017-06-11T19:31:14.326Z,92.80
2017-06-11T19:33:43.617Z,93.30
2017-06-11T19:36:12.856Z,92.30
2017-06-11T19:38:41.405Z,92.20
2017-06-11T19:41:10.700Z,91.70
2017-06-11T19:43:40.182Z,93.00
2017-06-11T19:46:08.691Z,92.30
2017-06-11T19:48:37.988Z,93.90
2017-06-11T19:51:08.111Z,93.20
2017-06-11T19:53:39.155Z,93.10
2017-06-11T19:56:07.815Z,93.10
2017-06-11T19:58:36.384Z,94.00
2017-06-11T20:01:05.110Z,93.40
2017-06-11T20:03:34.716Z,94.00
2017-06-11T20:06:03.359Z,94.00
2017-06-11T20:08:32.218Z,94.60
2017-06-11T20:11:00.860Z,94.20
2017-06-11T20:13:29.400Z,94.90
2017-06-11T20:15:58.640Z,94.50
2017-06-11T20:18:27.216Z,94.10
2017-06-11T20:20:55.681Z,94.20
2017-06-11T20:23:24.501Z,94.50
2017-06-11T20:25:52.993Z,95.10
2017-06-11T20:28:21.790Z,93.90
2017-06-11T20:30:50.650Z,94.20
2017-06-11T20:33:19.158Z,94.40
2017-06-11T20:35:47.686Z,94.90
2017-06-11T20:38:16.418Z,95.00
2017-06-11T20:40:46.524Z,95.20
2017-06-11T20:43:15.420Z,94.30
2017-06-11T20:45:44.333Z,93.90
2017-06-11T20:48:13.583Z,95.00
2017-06-11T20:50:42.277Z,94.50
2017-06-11T20:53:11.053Z,92.70
2017-06-11T20:55:39.656Z,92.80
2017-06-11T20:58:08.236Z,93.10
2017-06-11T21:00:36.842Z,93.50
2017-06-11T21:03:05.566Z,92.60
2017-06-11T21:05:35.473Z,92.30
2017-06-11T21:08:04.332Z,92.00
2017-06-11T21:10:32.812Z,92.00
2017-06-11T21:13:01.275Z,92.60
2017-06-11T21:15:29.851Z,92.20
2017-06-11T21:17:58.479Z,92.40
2017-06-11T21:20:27.029Z,92.00
2017-06-11T21:22:55.635Z,92.60
2017-06-11T21:25:24.157Z,92.20
2017-06-11T21:27:52.688Z,93.10
2017-06-11T21:30:21.805Z,92.30
2017-06-11T21:32:50.273Z,92.60
2017-06-11T21:35:18.170Z,92.10
2017-06-11T21:37:46.305Z,92.40
2017-06-11T21:40:15.055Z,92.50
2017-06-11T21:42:42.921Z,92.60
2017-06-11T21:45:10.872Z,92.20
2017-06-11T21:47:38.739Z,92.10
2017-06-11T21:50:07.349Z,92.10
2017-06-11T21:52:35.520Z,92.00
2017-06-11T21:55:04.437Z,93.00
2017-06-11T21:57:33.099Z,93.00
2017-06-11T22:00:02.382Z,94.60
2017-06-11T22:02:31.046Z,93.70
2017-06-11T22:04:59.516Z,92.60
2017-06-11T22:07:28.051Z,92.80
2017-06-11T22:09:57.300Z,93.30
2017-06-11T22:12:25.893Z,93.20
2017-06-11T22:14:55.955Z,92.50
2017-06-11T22:17:24.620Z,93.80
2017-06-11T22:19:53.361Z,92.40
2017-06-11T22:22:21.810Z,92.70
2017-06-11T22:24:50.463Z,92.10
2017-06-11T22:27:18.981Z,92.20
2017-06-11T22:29:48.474Z,90.00
2017-06-11T22:32:17.414Z,90.00
2017-06-11T22:34:45.889Z,89.80
2017-06-11T22:37:14.354Z,89.70
2017-06-11T22:39:43.825Z,89.60
2017-06-11T22:42:12.505Z,89.50
2017-06-11T22:44:41.018Z,89.40
2017-06-11T22:47:10.942Z,91.20
2017-06-11T22:49:40.201Z,90.30
2017-06-11T22:52:08.686Z,90.10
2017-06-11T22:54:37.369Z,90.70
2017-06-11T22:57:06.353Z,89.70
2017-06-11T22:59:34.864Z,90.80
2017-06-11T23:02:03.425Z,90.50
2017-06-11T23:04:31.933Z,90.30
2017-06-11T23:07:00.599Z,90.90
2017-06-11T23:09:29.110Z,91.10
2017-06-11T23:11:58.421Z,90.80
2017-06-11T23:14:27.531Z,90.80
2017-06-11T23:16:56.854Z,91.60
2017-06-11T23:19:25.914Z,91.50
2017-06-11T23:21:55.197Z,91.30
2017-06-11T23:24:23.666Z,91.30
2017-06-11T23:26:52.221Z,91.20
2017-06-11T23:29:20.701Z,91.40
2017-06-11T23:31:49.312Z,91.40
2017-06-11T23:34:18.394Z,91.30
2017-06-11T23:36:46.905Z,91.20
2017-06-11T23:39:15.381Z,91.10
2017-06-11T23:41:43.856Z,91.30
2017-06-11T23:44:12.334Z,91.60
2017-06-11T23:46:40.813Z,91.70
2017-06-11T23:49:09.286Z,91.30
2017-06-11T23:51:37.769Z,91.30
2017-06-11T23:54:06.737Z,90.80
2017-06-11T23:56:35.208Z,91.40
2017-06-11T23:59:04.437Z,91.20
